Time;durP1;ratioP1;P1;durP2;ratioP2;P2;SDS_P1;SDS_P2;PMS_P1;PMS_P2;Temp;Humidity;BMP_temperature;BMP_pressure;BME280_temperature;BME280_humidity;BME280_pressure;Samples;Min_cycle;Max_cycle;Signal;HPM_P1;HPM_P2
2022/01/23 00:04:36;;;;;;;38.90;22.58;;;;;;;4.49;94.13;103466.34;5051891;28;20040;-54
2022/01/23 00:07:05;;;;;;;37.00;21.88;;;;;;;4.51;93.94;103467.00;5052007;28;20396;-54
2022/01/23 00:09:31;;;;;;;39.75;23.25;;;;;;;4.50;94.02;103457.94;5052528;28;20021;-53
2022/01/23 00:11:57;;;;;;;40.10;25.05;;;;;;;4.48;93.98;103461.94;5052126;28;20040;-55
2022/01/23 00:17:17;;;;;;;36.97;22.95;;;;;;;4.50;93.87;103459.81;5052262;28;20039;-52
2022/01/23 00:19:44;;;;;;;39.55;22.30;;;;;;;4.52;93.54;103465.97;5052137;28;20056;-55
2022/01/23 00:22:11;;;;;;;39.08;22.40;;;;;;;4.50;93.62;103460.69;5051966;28;20025;-55
2022/01/23 00:32:45;;;;;;;38.88;22.38;;;;;;;4.52;93.67;103452.25;5056125;28;20070;-54
2022/01/23 00:35:10;;;;;;;36.63;22.35;;;;;;;4.50;nan;103441.50;5055419;28;20108;-56
2022/01/23 00:37:36;;;;;;;38.08;21.75;;;;;;;4.51;93.77;103443.19;5055707;28;20356;-54
2022/01/23 00:40:03;;;;;;;36.58;22.40;;;;;;;4.50;92.99;103441.50;5055955;28;20075;-55
2022/01/23 00:42:28;;;;;;;37.97;22.95;;;;;;;4.50;92.95;103446.13;5055879;28;20052;-54
2022/01/23 00:45:02;;;;;;;40.15;23.15;;;;;;;4.49;93.05;103448.03;5056058;28;20025;-56
2022/01/23 00:47:27;;;;;;;;;;;;;;;4.52;93.49;103444.03;5056487;28;20024;-53
2022/01/23 00:49:53;;;;;;;38.63;21.92;;;;;;;4.45;93.03;103443.97;5055850;28;19916;-54
2022/01/23 00:52:18;;;;;;;39.60;22.67;;;;;;;4.46;93.11;103448.41;5055061;28;20377;-53
2022/01/23 00:54:44;;;;;;;38.38;21.85;;;;;;;4.45;93.62;103443.97;5055235;28;20037;-54
2022/01/23 00:57:09;;;;;;;38.50;22.65;;;;;;;4.43;93.22;103443.34;5055823;28;20032;-54
2022/01/23 00:59:34;;;;;;;38.25;22.50;;;;;;;4.42;93.43;103446.28;5055560;28;20028;-54
2022/01/23 01:02:00;;;;;;;36.67;21.58;;;;;;;4.37;93.72;103442.25;5055099;28;20029;-56
2022/01/23 01:04:25;;;;;;;36.03;21.95;;;;;;;4.41;93.66;103437.22;5055762;28;20025;-56
2022/01/23 01:06:50;;;;;;;37.45;22.50;;;;;;;4.41;93.37;103444.59;5055547;28;20476;-55
2022/01/23 01:09:15;;;;;;;35.47;21.42;;;;;;;4.40;93.42;103438.25;5055246;28;20025;-55
2022/01/23 01:11:56;;;;;;;37.35;22.67;;;;;;;4.40;93.46;103437.41;5054940;28;20376;-55
2022/01/23 01:14:43;;;;;;;35.83;21.60;;;;;;;4.40;93.82;103446.50;5055236;28;20021;-57
2022/01/23 01:17:17;;;;;;;38.53;23.38;;;;;;;4.39;93.34;103439.31;5054806;28;20057;-55
2022/01/23 01:33:36;;;;;;;38.40;22.00;;;;;;;4.32;94.06;103449.38;5055346;28;20040;-55
2022/01/23 01:36:17;;;;;;;38.08;22.70;;;;;;;4.25;93.65;103445.75;5053837;28;20028;-55
2022/01/23 01:38:44;;;;;;;38.50;23.08;;;;;;;4.28;94.05;103456.31;5054709;28;20066;-56
2022/01/23 01:41:09;;;;;;;37.65;22.85;;;;;;;4.27;94.06;103458.22;5054049;28;20032;-54
2022/01/23 01:43:34;;;;;;;37.40;22.02;;;;;;;4.28;94.61;103450.81;5054862;28;20021;-55
2022/01/23 01:46:00;;;;;;;37.92;22.40;;;;;;;4.26;94.22;103455.66;5055085;28;20029;-54
2022/01/23 01:48:26;;;;;;;38.88;22.75;;;;;;;4.27;94.05;103458.22;5054098;28;20480;-58
2022/01/23 01:50:54;;;;;;;38.10;22.70;;;;;;;4.26;94.28;103456.50;5054615;28;20040;-54
2022/01/23 01:53:23;;;;;;;36.28;22.05;;;;;;;4.28;93.97;103461.78;5053790;28;20358;-56
2022/01/23 01:55:52;;;;;;;38.25;23.02;;;;;;;4.21;93.87;103459.84;5054216;28;20023;-55
2022/01/23 02:01:12;;;;;;;39.20;22.67;;;;;;;4.29;94.04;103466.22;5054845;28;20503;-55
2022/01/23 02:08:21;;;;;;;39.55;23.20;;;;;;;4.28;94.24;103462.66;5054066;28;20530;-55
2022/01/23 02:09:13;;;;;;;37.72;22.02;;;;;;;4.26;94.43;103459.25;5054864;28;20040;-55
2022/01/23 02:12:07;;;;;;;35.13;21.23;;;;;;;4.26;94.00;103447.44;5053626;28;20033;-55
2022/01/23 02:14:55;;;;;;;37.53;22.35;;;;;;;4.29;94.03;103444.28;5053423;28;20045;-56
2022/01/23 02:17:59;;;;;;;37.17;21.35;;;;;;;4.26;94.51;103426.38;5054282;28;20109;-57
2022/01/23 02:53:17;;;;;;;38.63;21.52;;;;;;;4.28;94.44;103423.41;5053679;28;20056;-52
2022/01/23 02:55:44;;;;;;;35.92;21.33;;;;;;;4.28;94.31;103417.94;5053214;28;20155;-53
2022/01/23 02:58:12;;;;;;;39.58;21.55;;;;;;;4.28;94.50;103415.19;5053414;28;20029;-54
2022/01/23 03:00:48;;;;;;;37.30;21.02;;;;;;;4.28;94.17;103413.31;5052842;28;20029;-54
2022/01/23 03:03:21;;;;;;;35.55;20.95;;;;;;;4.29;94.39;103417.75;5053275;28;20029;-54
2022/01/23 03:06:07;;;;;;;42.55;22.00;;;;;;;4.29;94.11;103401.31;5053295;28;20498;-53
2022/01/23 03:08:55;;;;;;;36.75;21.80;;;;;;;4.29;94.39;103409.53;5052961;28;20037;-56
2022/01/23 03:11:47;;;;;;;36.50;21.30;;;;;;;4.29;93.62;103412.28;5052543;28;20090;-54
2022/01/23 03:14:22;;;;;;;35.42;21.80;;;;;;;4.27;93.91;103416.25;5052816;28;20033;-53
2022/01/23 03:30:25;;;;;;;35.10;21.10;;;;;;;4.24;94.19;103431.19;5052167;28;20038;-56
2022/01/23 03:32:52;;;;;;;35.08;20.63;;;;;;;4.23;94.39;103424.00;5051960;28;20025;-55
2022/01/23 03:35:19;;;;;;;37.50;20.83;;;;;;;4.26;94.53;103422.75;5052179;28;20025;-55
2022/01/23 03:37:45;;;;;;;36.40;21.40;;;;;;;4.26;94.46;103429.09;5052702;28;20392;-55
2022/01/23 03:40:10;;;;;;;35.50;20.40;;;;;;;4.28;93.90;103428.91;5052514;28;20029;-54
2022/01/23 03:42:39;;;;;;;35.85;19.98;;;;;;;4.31;94.38;103432.09;5052243;28;20028;-53
2022/01/23 03:49:30;;;;;;;38.05;21.13;;;;;;;4.30;93.68;103429.56;5052483;28;20047;-55
2022/01/23 03:50:43;;;;;;;33.85;20.33;;;;;;;4.27;94.28;103422.59;5052639;28;20385;-55
2022/01/23 03:53:09;;;;;;;39.10;21.58;;;;;;;4.31;93.69;103437.56;5052427;28;20084;-52
2022/01/23 03:55:35;;;;;;;36.28;20.35;;;;;;;4.31;94.20;103447.69;5051956;28;20076;-54
2022/01/23 03:58:00;;;;;;;35.85;21.08;;;;;;;4.31;94.54;103442.22;5055988;28;20025;-54
2022/01/23 04:00:25;;;;;;;37.38;20.85;;;;;;;4.32;94.45;103435.69;5059396;28;20042;-53
2022/01/23 04:02:51;;;;;;;38.58;20.88;;;;;;;4.34;94.50;103445.41;5059527;28;20025;-53
2022/01/23 04:05:17;;;;;;;34.22;19.48;;;;;;;4.35;94.36;103438.88;5058973;28;20029;-52
2022/01/23 04:07:42;;;;;;;35.72;20.00;;;;;;;4.40;94.04;103441.00;5058566;28;20079;-51
2022/01/23 04:10:10;;;;;;;33.70;19.20;;;;;;;4.45;93.72;103443.97;5059214;28;20104;-51
2022/01/23 04:33:59;;;;;;;33.05;18.55;;;;;;;4.48;93.04;103440.84;5059221;28;19939;-54
2022/01/23 05:01:04;;;;;;;;;;;;;;;4.22;93.82;103455.19;5059499;28;20052;-54
2022/01/23 05:06:02;;;;;;;34.92;19.48;;;;;;;4.18;94.31;103448.44;5058789;28;20041;-54
2022/01/23 05:08:30;;;;;;;34.80;20.42;;;;;;;4.15;93.86;103455.19;5058267;28;20057;-55
2022/01/23 05:10:59;;;;;;;34.70;18.92;;;;;;;4.17;94.97;103453.06;5054606;28;20416;-54
2022/01/23 05:13:26;;;;;;;35.50;20.20;;;;;;;4.18;94.67;103451.19;5054962;28;20033;-51
2022/01/23 05:15:52;;;;;;;36.47;19.30;;;;;;;4.22;94.33;103455.19;5054811;28;20025;-54
2022/01/23 05:18:18;;;;;;;33.83;19.48;;;;;;;4.22;94.33;103450.59;5055272;28;20078;-56
2022/01/23 05:20:45;;;;;;;35.17;19.13;;;;;;;4.20;94.33;103454.56;5055376;28;20021;-54
2022/01/23 05:23:10;;;;;;;36.00;19.58;;;;;;;4.21;95.00;103451.63;5055010;28;20036;-54
2022/01/23 05:25:37;;;;;;;33.60;19.23;;;;;;;4.27;94.92;103455.47;5054876;28;20033;-55
2022/01/23 05:28:03;;;;;;;37.22;19.92;;;;;;;4.34;95.00;103455.53;5055106;28;20361;-54
2022/01/23 05:30:28;;;;;;;34.15;19.98;;;;;;;4.39;94.36;103446.69;5053447;28;20087;-53
2022/01/23 05:32:55;;;;;;;33.47;18.92;;;;;;;4.42;94.12;103452.63;5054898;28;20032;-54
2022/01/23 05:35:23;;;;;;;35.47;21.08;;;;;;;4.39;93.68;103452.19;5053176;28;20025;-52
2022/01/23 05:37:49;;;;;;;37.28;19.77;;;;;;;4.34;94.16;103455.53;5054669;28;20067;-53
2022/01/23 05:40:16;;;;;;;36.35;20.95;;;;;;;4.28;94.34;103456.31;5054557;28;20419;-54
2022/01/23 05:42:42;;;;;;;35.72;19.55;;;;;;;4.20;94.58;103458.16;5054608;28;20044;-55
2022/01/23 05:45:08;;;;;;;34.25;20.45;;;;;;;4.18;94.68;103457.50;5055288;28;20065;-54
2022/01/23 05:47:34;;;;;;;35.03;19.13;;;;;;;4.19;94.96;103456.44;5053326;28;20021;-54
2022/01/23 05:49:59;;;;;;;37.35;20.15;;;;;;;4.20;95.29;103455.41;5054737;28;20078;-52
2022/01/23 05:52:24;;;;;;;36.65;19.98;;;;;;;4.20;94.82;103452.66;5054678;28;20056;-52
2022/01/23 05:54:50;;;;;;;38.92;22.58;;;;;;;4.23;95.05;103454.16;5054366;28;20078;-55
2022/01/23 05:57:15;;;;;;;39.08;23.63;;;;;;;4.25;95.46;103456.72;5054091;28;20408;-53
2022/01/23 05:59:40;;;;;;;38.05;21.13;;;;;;;4.24;94.86;103447.63;5054782;28;20032;-52
2022/01/23 06:02:05;;;;;;;35.03;20.42;;;;;;;4.24;94.91;103449.53;5054442;28;20086;-53
2022/01/23 06:04:31;;;;;;;36.53;20.88;;;;;;;4.23;94.58;103448.69;5054376;28;20074;-53
2022/01/23 06:06:58;;;;;;;36.05;21.27;;;;;;;4.21;94.46;103451.63;5054030;28;20024;-51
2022/01/23 06:09:24;;;;;;;34.60;20.58;;;;;;;4.19;94.09;103450.13;5053863;28;20021;-54
2022/01/23 06:11:50;;;;;;;35.35;20.27;;;;;;;4.24;95.08;103446.81;5054183;28;20074;-54
2022/01/23 06:14:16;;;;;;;37.13;20.85;;;;;;;4.29;94.57;103450.66;5054550;28;20037;-54
2022/01/23 06:16:41;;;;;;;39.50;22.63;;;;;;;4.31;94.84;103451.25;5054192;28;20087;-53
2022/01/23 06:19:06;;;;;;;38.53;22.27;;;;;;;4.32;94.53;103455.69;5054460;28;20029;-54
2022/01/23 06:21:32;;;;;;;37.60;21.88;;;;;;;4.34;94.35;103455.53;5052843;28;20032;-53
2022/01/23 06:24:08;;;;;;;38.30;23.58;;;;;;;4.35;94.08;103462.66;5053329;28;20033;-54
2022/01/23 06:26:45;;;;;;;38.67;22.58;;;;;;;4.35;94.23;103457.19;5054123;28;20024;-54
2022/01/23 06:29:15;;;;;;;36.65;21.27;;;;;;;4.36;94.19;103464.38;5054132;28;20017;-55
2022/01/23 06:31:42;;;;;;;37.50;20.58;;;;;;;4.38;94.49;103465.03;5053679;28;20078;-55
2022/01/23 06:34:09;;;;;;;42.05;23.23;;;;;;;4.38;94.46;103462.28;5054015;28;20445;-54
2022/01/23 06:36:35;;;;;;;36.00;19.55;;;;;;;4.40;94.29;103459.34;5054054;28;20086;-55
2022/01/23 06:39:02;;;;;;;37.10;21.27;;;;;;;4.39;94.12;103460.41;5053796;28;20049;-55
2022/01/23 06:41:28;;;;;;;36.80;20.20;;;;;;;4.37;93.74;103463.31;5053746;28;20025;-52
2022/01/23 06:43:53;;;;;;;38.00;20.55;;;;;;;4.36;93.95;103459.75;5053323;28;20078;-56
2022/01/23 06:46:18;;;;;;;40.97;23.83;;;;;;;4.33;94.12;103467.53;5053493;28;20388;-55
2022/01/23 06:48:44;;;;;;;40.47;23.00;;;;;;;4.29;93.93;103466.22;5053687;28;20044;-54
2022/01/23 06:51:09;;;;;;;43.63;25.45;;;;;;;4.31;94.13;103469.63;5053371;28;20029;-53
2022/01/23 06:53:34;;;;;;;46.28;26.02;;;;;;;4.30;94.39;103471.50;5053663;28;20404;-55
2022/01/23 06:55:59;;;;;;;43.42;25.80;;;;;;;4.29;94.43;103472.56;5053272;28;20074;-54
2022/01/23 06:58:25;;;;;;;43.63;24.27;;;;;;;4.33;94.92;103475.75;5053574;28;20025;-54
2022/01/23 07:00:50;;;;;;;55.15;31.35;;;;;;;4.34;94.39;103483.75;5053035;28;20025;-54
2022/01/23 07:03:15;;;;;;;43.08;25.10;;;;;;;4.32;94.62;103476.78;5053029;28;20040;-55
2022/01/23 07:05:41;;;;;;;39.20;23.90;;;;;;;4.31;94.12;103488.81;5053490;28;20021;-58
2022/01/23 07:08:06;;;;;;;44.55;25.20;;;;;;;4.29;94.17;103485.41;5053075;28;20041;-54
2022/01/23 07:10:32;;;;;;;49.90;29.25;;;;;;;4.29;94.31;103483.53;5053208;28;20021;-55
2022/01/23 07:12:57;;;;;;;48.40;27.77;;;;;;;4.25;94.15;103487.69;5053392;28;20021;-55
2022/01/23 07:15:22;;;;;;;45.38;26.02;;;;;;;4.27;94.51;103493.84;5052654;28;20029;-53
2022/01/23 07:17:48;;;;;;;37.28;21.45;;;;;;;4.30;94.37;103493.41;5052704;28;20025;-54
2022/01/23 07:20:13;;;;;;;42.08;24.45;;;;;;;4.32;94.80;103494.06;5053188;28;20021;-57
2022/01/23 07:22:39;;;;;;;39.05;23.00;;;;;;;4.30;94.32;103500.81;5053367;28;20456;-55
2022/01/23 07:25:05;;;;;;;37.33;21.88;;;;;;;4.31;94.26;103503.34;5053298;28;20040;-55
2022/01/23 07:27:36;;;;;;;40.88;25.08;;;;;;;4.28;94.20;103506.50;5053274;28;20480;-56
2022/01/23 07:30:04;;;;;;;40.22;25.15;;;;;;;4.30;94.17;103512.59;5053223;28;20091;-55
2022/01/23 07:32:30;;;;;;;39.33;23.17;;;;;;;4.30;94.00;103511.78;5052760;28;20564;-56
2022/01/23 07:34:55;;;;;;;39.78;23.25;;;;;;;4.30;94.34;103526.31;5053171;28;20117;-55
2022/01/23 07:37:20;;;;;;;40.95;24.23;;;;;;;4.33;94.45;103530.56;5053194;28;20052;-55
2022/01/23 07:39:45;;;;;;;41.25;24.98;;;;;;;4.35;94.12;103522.97;5053136;28;20079;-53
2022/01/23 07:42:11;;;;;;;38.15;21.77;;;;;;;4.38;94.14;103528.06;5053207;28;20033;-57
2022/01/23 07:44:36;;;;;;;39.38;22.98;;;;;;;4.37;94.34;103531.84;5053058;28;20029;-56
2022/01/23 07:47:01;;;;;;;39.55;23.48;;;;;;;4.39;93.70;103534.41;5052871;28;20029;-55
2022/01/23 07:49:27;;;;;;;37.92;22.08;;;;;;;4.40;93.96;103531.47;5052186;28;20052;-55
2022/01/23 07:51:52;;;;;;;35.35;21.13;;;;;;;4.40;93.66;103530.59;5052213;28;20025;-55
2022/01/23 07:54:17;;;;;;;37.17;21.95;;;;;;;4.38;94.37;103539.03;5052721;28;20024;-53
2022/01/23 07:56:42;;;;;;;36.47;21.52;;;;;;;4.39;94.02;103531.66;5052333;28;20025;-56
2022/01/23 07:59:11;;;;;;;37.03;22.65;;;;;;;4.39;94.23;103539.88;5052882;28;20029;-57
2022/01/23 08:01:39;;;;;;;41.22;24.70;;;;;;;4.40;94.29;103539.69;5053033;28;20025;-55
2022/01/23 08:04:07;;;;;;;40.28;22.95;;;;;;;4.44;94.20;103537.38;5053066;28;20029;-53
2022/01/23 08:06:40;;;;;;;42.30;26.05;;;;;;;4.43;94.31;103533.81;5052912;28;20032;-56
2022/01/23 08:09:05;;;;;;;39.92;22.52;;;;;;;4.46;94.44;103538.88;5053055;28;20056;-56
2022/01/23 08:11:31;;;;;;;38.58;22.38;;;;;;;4.46;94.19;103535.31;5052906;28;20464;-55
2022/01/23 08:13:56;;;;;;;39.28;22.20;;;;;;;4.47;93.78;103537.84;5052876;28;20392;-54
2022/01/23 08:16:21;;;;;;;39.83;22.25;;;;;;;4.47;93.94;103543.31;5052493;28;20090;-55
2022/01/23 08:18:46;;;;;;;38.25;21.20;;;;;;;4.48;93.72;103541.44;5052676;28;20025;-56
2022/01/23 08:21:12;;;;;;;42.72;24.20;;;;;;;4.48;94.08;103542.28;5053903;28;20061;-56
2022/01/23 08:23:38;;;;;;;47.05;29.73;;;;;;;4.47;93.98;103539.75;5052686;28;20467;-55
2022/01/23 08:26:04;;;;;;;43.70;25.67;;;;;;;4.47;93.98;103537.00;5052671;28;20468;-55
2022/01/23 08:28:29;;;;;;;43.78;25.42;;;;;;;4.47;94.39;103546.06;5052601;28;20484;-56
2022/01/23 08:30:55;;;;;;;43.28;26.23;;;;;;;4.49;94.24;103546.72;5052476;28;20048;-53
2022/01/23 08:33:20;;;;;;;50.03;28.17;;;;;;;4.51;94.19;103549.25;5051228;28;20462;-56
2022/01/23 08:35:45;;;;;;;55.33;33.67;;;;;;;4.52;93.67;103556.44;5052693;28;20029;-55
2022/01/23 08:38:13;;;;;;;48.22;29.63;;;;;;;4.52;94.11;103553.69;5052485;28;20036;-55
2022/01/23 08:43:07;;;;;;;42.55;25.00;;;;;;;4.56;94.15;103559.63;5035374;28;20045;-54
2022/01/23 08:45:33;;;;;;;41.67;23.80;;;;;;;4.57;94.11;103562.19;5032535;28;20029;-52
2022/01/23 08:47:59;;;;;;;45.00;27.00;;;;;;;4.59;93.62;103561.97;5034103;28;20033;-54
2022/01/23 08:50:25;;;;;;;42.00;24.55;;;;;;;4.60;94.10;103559.03;5033871;28;20021;-54
2022/01/23 08:52:51;;;;;;;42.30;23.95;;;;;;;4.62;94.00;103567.06;5033718;28;20137;-54
2022/01/23 08:55:16;;;;;;;39.83;22.80;;;;;;;4.62;93.90;103565.16;5033853;28;20612;-54
2022/01/23 08:57:41;;;;;;;39.67;22.17;;;;;;;4.62;94.13;103564.31;5033852;28;20448;-55
2022/01/23 09:00:07;;;;;;;39.85;22.48;;;;;;;4.61;94.30;103571.69;5033732;28;20037;-54
2022/01/23 09:02:32;;;;;;;39.40;22.50;;;;;;;4.62;94.35;103578.03;5033971;28;20523;-52
2022/01/23 09:05:00;;;;;;;39.42;22.73;;;;;;;4.65;94.06;103566.66;5033643;28;20468;-55
2022/01/23 09:07:25;;;;;;;38.78;22.85;;;;;;;4.67;94.18;103578.28;5037641;28;20166;-53
2022/01/23 09:09:50;;;;;;;39.53;23.27;;;;;;;4.69;94.36;103574.28;5053288;28;20134;-53
2022/01/23 09:12:41;;;;;;;40.72;22.83;;;;;;;4.71;94.12;103571.34;5053319;28;20047;-54
2022/01/23 09:15:07;;;;;;;40.42;23.05;;;;;;;4.74;93.96;103567.38;5053545;28;20037;-55
2022/01/23 09:17:33;;;;;;;44.55;26.23;;;;;;;4.78;93.60;103569.50;5053089;28;20040;-54
2022/01/23 09:19:58;;;;;;;43.55;25.08;;;;;;;4.81;93.63;103568.25;5053398;28;20330;-53
2022/01/23 09:22:28;;;;;;;40.65;23.55;;;;;;;4.83;93.32;103558.78;5052094;28;20017;-53
2022/01/23 09:24:54;;;;;;;39.13;22.98;;;;;;;4.83;93.44;103563.41;5053236;28;20036;-53
2022/01/23 09:27:20;;;;;;;40.15;23.73;;;;;;;4.85;93.01;103561.34;5053168;28;20036;-54
2022/01/23 09:29:52;;;;;;;42.53;25.15;;;;;;;4.87;93.76;103566.59;5053189;28;20408;-56
2022/01/23 09:32:21;;;;;;;41.92;23.58;;;;;;;4.88;93.11;103565.56;5053150;28;20178;-53
2022/01/23 09:34:48;;;;;;;40.42;23.27;;;;;;;4.95;nan;103570.06;5053104;28;20107;-55
2022/01/23 09:37:15;;;;;;;43.92;24.77;;;;;;;4.97;93.06;103567.09;5052886;28;20025;-55
2022/01/23 09:39:42;;;;;;;44.42;24.92;;;;;;;4.99;92.86;103573.25;5053029;28;20033;-57
2022/01/23 09:42:14;;;;;;;46.05;25.52;;;;;;;4.97;92.69;103565.19;5050206;28;20474;-55
2022/01/23 09:44:51;;;;;;;43.00;24.92;;;;;;;5.03;92.73;103570.94;5052434;28;20484;-54
2022/01/23 09:47:19;;;;;;;43.38;24.63;;;;;;;5.09;92.32;103575.59;5052949;28;20028;-52
2022/01/23 09:49:46;;;;;;;43.85;24.00;;;;;;;5.13;92.29;103587.91;5053024;28;20067;-55
2022/01/23 09:52:13;;;;;;;41.22;24.40;;;;;;;5.14;92.25;103584.09;5052532;28;20052;-56
2022/01/23 09:54:40;;;;;;;44.78;27.38;;;;;;;5.18;92.06;103579.06;5052519;28;20032;-52
2022/01/23 09:57:08;;;;;;;46.05;24.60;;;;;;;5.20;91.97;103582.41;5052377;28;20029;-55
2022/01/23 09:59:33;;;;;;;45.45;27.05;;;;;;;5.23;92.00;103585.63;5052457;28;20029;-52
2022/01/23 10:01:59;;;;;;;46.08;27.60;;;;;;;5.26;91.80;103587.13;5052690;28;20414;-52
2022/01/23 10:04:25;;;;;;;42.50;24.20;;;;;;;5.28;91.94;103587.78;5052638;28;20387;-54
2022/01/23 10:06:52;;;;;;;42.63;24.30;;;;;;;5.31;91.72;103585.47;5052629;28;20564;-54
2022/01/23 10:09:21;;;;;;;42.88;25.52;;;;;;;5.34;91.68;103584.19;5052631;28;20040;-53
2022/01/23 10:11:47;;;;;;;40.47;23.63;;;;;;;5.40;91.81;103599.00;5052599;28;20116;-54
2022/01/23 10:14:14;;;;;;;39.72;22.88;;;;;;;5.43;91.38;103582.16;5052095;28;20475;-55
2022/01/23 10:16:40;;;;;;;43.70;24.38;;;;;;;5.46;91.62;103585.31;5052115;28;20033;-53
2022/01/23 10:19:07;;;;;;;40.13;23.42;;;;;;;5.47;91.30;103587.03;5052326;28;20036;-53
2022/01/23 10:21:35;;;;;;;40.05;23.15;;;;;;;5.44;91.62;103575.56;5052538;28;20464;-54
2022/01/23 10:24:01;;;;;;;41.55;22.88;;;;;;;5.55;91.43;103579.66;5052061;28;20115;-55
2022/01/23 10:26:52;;;;;;;43.35;23.98;;;;;;;5.62;91.00;103584.09;5052237;28;20142;-53
2022/01/23 10:29:43;;;;;;;41.28;23.77;;;;;;;5.64;90.68;103592.16;5051912;28;20060;-55
2022/01/23 10:32:20;;;;;;;41.45;23.95;;;;;;;5.63;90.72;103574.81;5052385;28;20032;-52
2022/01/23 10:35:00;;;;;;;42.45;22.85;;;;;;;5.72;90.72;103578.25;5052071;28;20057;-52
2022/01/23 10:37:43;;;;;;;41.50;23.33;;;;;;;5.80;90.47;103579.09;5051792;28;20099;-54
2022/01/23 10:40:21;;;;;;;42.70;23.55;;;;;;;5.83;90.16;103587.78;5051410;28;20040;-55
2022/01/23 10:46:33;;;;;;;40.60;23.25;;;;;;;5.87;90.23;103579.97;5050057;28;20027;-54
2022/01/23 10:48:37;;;;;;;39.65;23.38;;;;;;;5.90;89.87;103580.38;5051825;28;20048;-53
2022/01/23 10:51:26;;;;;;;39.40;21.83;;;;;;;5.96;90.18;103575.97;5052033;28;20070;-56
2022/01/23 10:54:22;;;;;;;42.83;23.92;;;;;;;6.00;90.13;103582.78;5051790;28;20052;-55
2022/01/23 10:56:56;;;;;;;43.20;24.33;;;;;;;5.99;89.85;103574.72;5042892;28;20557;-55
2022/01/23 10:59:22;;;;;;;42.20;23.13;;;;;;;5.97;89.72;103577.66;5051582;28;20043;-54
2022/01/23 11:02:09;;;;;;;39.53;21.75;;;;;;;6.06;90.56;103575.63;5051603;28;20029;-56
2022/01/23 11:04:50;;;;;;;35.50;20.75;;;;;;;6.07;90.20;103558.91;5051220;28;20091;-54
2022/01/23 11:07:15;;;;;;;39.63;22.23;;;;;;;6.07;89.65;103569.91;5050164;28;20060;-54
2022/01/23 11:09:41;;;;;;;39.03;22.08;;;;;;;6.09;89.45;103559.56;5051261;28;20060;-55
2022/01/23 11:12:23;;;;;;;37.70;21.20;;;;;;;6.07;89.48;103552.56;5051340;28;20120;-53
2022/01/23 11:17:57;;;;;;;40.47;23.17;;;;;;;6.03;89.32;103552.16;5051444;28;20052;-53
2022/01/23 11:20:42;;;;;;;42.20;22.90;;;;;;;6.12;90.03;103565.69;5051291;28;20052;-55
2022/01/23 11:23:23;;;;;;;41.92;23.83;;;;;;;6.17;89.90;103565.91;5051094;28;20064;-54
2022/01/23 11:25:57;;;;;;;41.40;24.08;;;;;;;6.19;89.92;103559.13;5050076;28;20035;-53
2022/01/23 11:28:37;;;;;;;40.63;23.92;;;;;;;6.20;89.60;103555.31;5048938;28;20025;-55
2022/01/23 11:31:04;;;;;;;41.15;23.58;;;;;;;6.13;89.88;103534.41;5051090;28;20358;-53
2022/01/23 11:33:30;;;;;;;40.47;24.08;;;;;;;6.24;89.97;103542.88;5050768;28;20384;-54
2022/01/23 11:35:56;;;;;;;41.05;23.92;;;;;;;6.27;89.66;103549.84;5050828;28;20029;-55
2022/01/23 11:38:24;;;;;;;43.25;24.25;;;;;;;6.28;89.25;103542.47;5050893;28;20033;-52
2022/01/23 11:54:49;;;;;;;42.22;24.08;;;;;;;6.42;89.56;103530.38;5050949;28;20387;-53
2022/01/23 11:57:33;;;;;;;44.30;23.80;;;;;;;6.54;89.75;103538.84;5050560;28;20090;-55
2022/01/23 12:00:04;;;;;;;39.70;23.02;;;;;;;6.57;89.42;103530.16;5050800;28;20033;-54
2022/01/23 12:02:36;;;;;;;39.97;24.63;;;;;;;6.60;89.49;103532.50;5050707;28;20036;-55
2022/01/23 12:05:15;;;;;;;40.83;24.33;;;;;;;6.62;89.15;103533.13;5050206;28;20455;-54
2022/01/23 12:07:42;;;;;;;40.72;21.90;;;;;;;6.62;89.28;103533.13;5050509;28;20039;-54
2022/01/23 12:10:19;;;;;;;38.10;21.95;;;;;;;6.60;88.92;103527.00;5050640;28;20056;-52
2022/01/23 12:12:47;;;;;;;39.50;22.58;;;;;;;6.61;89.19;103523.19;5050924;28;20033;-55
2022/01/23 12:18:13;;;;;;;39.72;23.38;;;;;;;6.66;88.40;103523.38;5051524;28;20040;-52
2022/01/23 12:20:39;;;;;;;39.45;23.83;;;;;;;6.62;88.97;103518.53;5054138;28;20492;-53
2022/01/23 12:23:05;;;;;;;40.33;23.90;;;;;;;6.70;89.10;103521.06;5054615;28;20025;-53
2022/01/23 12:25:45;;;;;;;37.20;21.90;;;;;;;6.76;88.84;103517.44;5054500;28;20379;-54
2022/01/23 12:28:20;;;;;;;39.47;21.98;;;;;;;6.81;88.42;103520.41;5054327;28;20037;-53
2022/01/23 12:30:47;;;;;;;38.60;22.08;;;;;;;6.85;88.30;103515.31;5054194;28;20029;-52
2022/01/23 12:33:22;;;;;;;38.35;23.02;;;;;;;6.84;88.40;103514.47;5054238;28;20469;-55
2022/01/23 12:35:52;;;;;;;38.72;22.05;;;;;;;6.77;88.08;103499.88;5054193;28;20035;-52
2022/01/23 12:38:19;;;;;;;39.42;23.27;;;;;;;6.79;88.21;103511.50;5054286;28;20512;-55
2022/01/23 12:40:48;;;;;;;39.33;22.40;;;;;;;6.74;88.45;103500.31;5054342;28;20063;-54
2022/01/23 12:43:21;;;;;;;38.70;22.23;;;;;;;6.77;88.13;103502.63;5052669;28;20033;-54
2022/01/23 12:46:02;;;;;;;39.58;23.88;;;;;;;6.70;88.29;103497.16;5054141;28;20025;-55
2022/01/23 12:48:33;;;;;;;38.22;22.65;;;;;;;6.70;88.71;103496.28;5053709;28;20037;-54
2022/01/23 12:51:05;;;;;;;38.80;23.17;;;;;;;6.66;89.40;103484.03;5053830;28;20025;-54
2022/01/23 12:53:57;;;;;;;37.63;23.23;;;;;;;6.68;88.29;103498.41;5054036;28;20053;-52
2022/01/23 12:56:29;;;;;;;38.97;23.75;;;;;;;6.57;88.61;103488.91;5053576;28;20055;-54
2022/01/23 12:59:00;;;;;;;38.38;22.70;;;;;;;6.62;88.78;103499.28;5053992;28;20025;-55
2022/01/23 13:01:27;;;;;;;39.25;23.13;;;;;;;6.66;89.24;103489.53;5052617;28;20040;-54
2022/01/23 13:03:55;;;;;;;40.53;23.83;;;;;;;6.64;88.58;103491.66;5052167;28;20373;-55
2022/01/23 13:06:35;;;;;;;38.35;23.80;;;;;;;6.64;88.94;103488.91;5053586;28;20082;-55
2022/01/23 13:09:39;;;;;;;40.03;23.98;;;;;;;6.61;88.76;103479.19;5051617;28;20464;-55
2022/01/23 13:12:13;;;;;;;43.35;24.58;;;;;;;6.62;88.99;103480.84;5033423;28;20029;-53
2022/01/23 13:17:59;;;;;;;42.83;25.48;;;;;;;6.66;89.42;103479.38;5034076;28;20404;-53
2022/01/23 13:35:06;;;;;;;42.58;24.55;;;;;;;6.62;88.76;103475.34;5053209;28;20041;-52
2022/01/23 13:37:36;;;;;;;43.47;26.48;;;;;;;6.58;89.12;103476.84;5052971;28;20048;-52
2022/01/23 13:40:19;;;;;;;42.97;26.15;;;;;;;6.60;89.51;103476.63;5053074;28;20029;-55
2022/01/23 13:59:17;;;;;;;46.67;28.13;;;;;;;6.38;89.96;103463.13;5052588;28;20056;-52
2022/01/23 14:01:56;;;;;;;47.13;28.73;;;;;;;6.35;89.66;103458.91;5051874;28;20032;-54
2022/01/23 14:04:24;;;;;;;45.78;27.30;;;;;;;6.31;89.89;103463.16;5051993;28;20040;-53
2022/01/23 14:06:50;;;;;;;44.28;27.15;;;;;;;6.34;90.17;103462.69;5052190;28;20562;-54
2022/01/23 14:09:16;;;;;;;45.35;27.88;;;;;;;6.35;90.13;103461.66;5051708;28;20032;-53
2022/01/23 14:11:43;;;;;;;45.45;27.83;;;;;;;6.32;89.82;103462.09;5051921;28;20032;-55
2022/01/23 14:14:09;;;;;;;45.58;28.50;;;;;;;6.32;90.04;103456.59;5053118;28;20472;-51
2022/01/23 14:16:35;;;;;;;45.33;27.83;;;;;;;6.28;89.84;103447.06;5050975;28;20029;-52
2022/01/23 14:19:26;;;;;;;48.83;28.95;;;;;;;6.32;90.19;103452.97;5052825;28;20032;-54
2022/01/23 14:21:59;;;;;;;44.60;27.45;;;;;;;6.25;89.78;103452.97;5053939;28;20033;-55
2022/01/23 14:24:28;;;;;;;46.90;28.03;;;;;;;6.26;89.86;103456.59;5053919;28;20122;-55
2022/01/23 14:26:59;;;;;;;44.42;27.60;;;;;;;6.22;89.89;103464.41;5053763;28;20115;-51
2022/01/23 14:29:26;;;;;;;43.53;26.20;;;;;;;6.20;90.00;103463.78;5052537;28;20032;-54
2022/01/23 14:32:03;;;;;;;42.58;26.02;;;;;;;6.21;90.04;103466.31;5053576;28;20127;-53
2022/01/23 14:34:28;;;;;;;44.72;26.52;;;;;;;6.18;90.00;103466.75;5053512;28;20135;-53
2022/01/23 14:36:59;;;;;;;45.63;26.90;;;;;;;6.16;89.97;103462.50;5053340;28;20025;-54
2022/01/23 14:39:24;;;;;;;43.60;26.00;;;;;;;6.17;90.16;103480.69;5053184;28;20033;-53